Time,TemperatureF,DewpointF,PressureIn,WindDirection,WindDirectionDegrees,WindSpeedMPH,WindSpeedGustMPH,Humidity,HourlyPrecipIn,Conditions,Clouds,dailyrainin,SoftwareType,DateUTC
2013-08-11 00:05:00,60.3,32.5,23.65,East,89,2.2,3.6,35,0.00,,---,0.00,VWS V14.00,2013-08-11 07:05:00,
2013-08-11 00:10:00,60.1,32.4,23.65,ESE,116,2.2,4.0,35,0.00,,---,0.00,VWS V14.00,2013-08-11 07:10:00,
2013-08-11 00:16:00,60.1,32.4,23.65,East,100,2.2,2.2,35,0.00,,---,0.00,VWS V14.00,2013-08-11 07:16:00,
2013-08-11 00:21:00,59.9,32.2,23.65,SE,139,5.8,5.8,35,0.00,,---,0.00,VWS V14.00,2013-08-11 07:21:00,
2013-08-11 00:26:00,59.9,32.2,23.65,SE,129,4.0,5.4,35,0.00,,---,0.00,VWS V14.00,2013-08-11 07:26:00,
2013-08-11 00:31:00,59.9,32.2,23.65,SE,124,3.1,3.1,35,0.00,,---,0.00,VWS V14.00,2013-08-11 07:31:00,
2013-08-11 00:36:00,59.9,32.2,23.65,SE,133,0.0,0.0,35,0.00,,---,0.00,VWS V14.00,2013-08-11 07:36:00,
2013-08-11 00:41:00,59.9,32.2,23.65,East,85,3.6,3.6,35,0.00,,---,0.00,VWS V14.00,2013-08-11 07:41:00,
2013-08-11 00:46:00,59.7,32.0,23.65,ESE,123,3.6,4.0,35,0.00,,---,0.00,VWS V14.00,2013-08-11 07:46:00,
2013-08-11 00:51:00,59.7,32.0,23.65,SE,126,0.0,0.0,35,0.00,,---,0.00,VWS V14.00,2013-08-11 07:51:00,
2013-08-11 00:56:00,59.5,31.9,23.65,ESE,116,0.0,2.2,35,0.00,,---,0.00,VWS V14.00,2013-08-11 07:56:00,
2013-08-11 01:02:00,59.4,31.7,23.65,ESE,116,0.0,0.0,35,0.00,,---,0.00,VWS V14.00,2013-08-11 08:02:00,
2013-08-11 01:07:00,59.4,31.7,23.65,ESE,116,0.0,0.0,35,0.00,,---,0.00,VWS V14.00,2013-08-11 08:07:00,
2013-08-11 01:12:00,59.2,31.6,23.65,ESE,116,0.0,0.0,35,0.00,,---,0.00,VWS V14.00,2013-08-11 08:12:00,
2013-08-11 01:18:00,59.0,31.4,23.65,ESE,116,0.0,0.0,35,0.00,,---,0.00,VWS V14.00,2013-08-11 08:18:00,
2013-08-11 01:24:00,58.8,31.2,23.65,ESE,119,0.0,0.0,35,0.00,,---,0.00,VWS V14.00,2013-08-11 08:24:00,
2013-08-11 01:30:00,58.6,31.1,23.65,ESE,119,0.0,0.0,35,0.00,,---,0.00,VWS V14.00,2013-08-11 08:30:00,
2013-08-11 01:35:00,58.5,30.9,23.65,ESE,119,0.0,0.0,35,0.00,,---,0.00,VWS V14.00,2013-08-11 08:35:00,
2013-08-11 01:40:00,58.3,30.8,23.65,ESE,119,0.0,0.0,35,0.00,,---,0.00,VWS V14.00,2013-08-11 08:40:00,
2013-08-11 01:45:00,58.1,30.6,23.65,ESE,119,0.0,0.0,35,0.00,,---,0.00,VWS V14.00,2013-08-11 08:45:00,
2013-08-11 01:50:00,57.9,30.5,23.65,ESE,119,0.0,0.0,35,0.00,,---,0.00,VWS V14.00,2013-08-11 08:50:00,
2013-08-11 01:56:00,57.7,30.3,23.65,ESE,119,0.0,0.0,35,0.00,,---,0.00,VWS V14.00,2013-08-11 08:56:00,
2013-08-11 02:01:00,57.6,30.1,23.65,ESE,119,0.0,0.0,35,0.00,,---,0.00,VWS V14.00,2013-08-11 09:01:00,
2013-08-11 02:06:00,57.4,30.0,23.65,ESE,119,0.0,0.0,35,0.00,,---,0.00,VWS V14.00,2013-08-11 09:06:00,
2013-08-11 02:12:00,57.2,29.8,23.65,ESE,119,0.0,0.0,35,0.00,,---,0.00,VWS V14.00,2013-08-11 09:12:00,
2013-08-11 02:17:00,56.8,29.5,23.65,ESE,119,0.0,0.0,35,0.00,,---,0.00,VWS V14.00,2013-08-11 09:17:00,
2013-08-11 02:22:00,56.7,29.3,23.65,ESE,119,0.0,0.0,35,0.00,,---,0.00,VWS V14.00,2013-08-11 09:22:00,
2013-08-11 02:27:00,56.3,29.0,23.65,ESE,119,0.0,0.0,35,0.00,,---,0.00,VWS V14.00,2013-08-11 09:27:00,
2013-08-11 02:33:00,55.9,28.7,23.65,ESE,119,0.0,0.0,35,0.00,,---,0.00,VWS V14.00,2013-08-11 09:33:00,
2013-08-11 02:38:00,55.8,28.5,23.65,ESE,119,0.0,0.0,35,0.00,,---,0.00,VWS V14.00,2013-08-11 09:38:00,
2013-08-11 02:43:00,55.6,28.4,23.65,ESE,119,0.0,0.0,35,0.00,,---,0.00,VWS V14.00,2013-08-11 09:43:00,
2013-08-11 02:48:00,55.0,28.6,23.62,ESE,119,0.0,0.0,36,0.00,,---,0.00,VWS V14.00,2013-08-11 09:48:00,
2013-08-11 02:53:00,54.9,28.4,23.62,ESE,119,0.0,0.0,36,0.00,,---,0.00,VWS V14.00,2013-08-11 09:53:00,
2013-08-11 02:59:00,54.9,28.4,23.62,ESE,119,0.0,0.0,36,0.00,,---,0.00,VWS V14.00,2013-08-11 09:59:00,
2013-08-11 03:04:00,54.5,28.1,23.65,ESE,119,0.0,0.0,36,0.00,,---,0.00,VWS V14.00,2013-08-11 10:04:00,
2013-08-11 03:09:00,54.1,27.8,23.65,ESE,119,0.0,0.0,36,0.00,,---,0.00,VWS V14.00,2013-08-11 10:09:00,
2013-08-11 03:14:00,54.1,27.8,23.65,ESE,119,0.0,0.0,36,0.00,,---,0.00,VWS V14.00,2013-08-11 10:14:00,
2013-08-11 03:19:00,54.0,27.6,23.65,ESE,119,0.0,0.0,36,0.00,,---,0.00,VWS V14.00,2013-08-11 10:19:00,
2013-08-11 03:24:00,53.6,27.3,23.65,ESE,119,0.0,0.0,36,0.00,,---,0.00,VWS V14.00,2013-08-11 10:24:00,
2013-08-11 03:30:00,53.6,27.3,23.65,ESE,119,0.0,0.0,36,0.00,,---,0.00,VWS V14.00,2013-08-11 10:30:00,
2013-08-11 03:35:00,53.4,27.1,23.62,ESE,119,0.0,0.0,36,0.00,,---,0.00,VWS V14.00,2013-08-11 10:35:00,
2013-08-11 03:41:00,53.2,27.0,23.62,ESE,119,0.0,0.0,36,0.00,,---,0.00,VWS V14.00,2013-08-11 10:41:00,
2013-08-11 03:46:00,53.1,26.8,23.62,ESE,119,0.0,0.0,36,0.00,,---,0.00,VWS V14.00,2013-08-11 10:46:00,
2013-08-11 03:51:00,52.9,26.7,23.62,ESE,119,0.0,0.0,36,0.00,,---,0.00,VWS V14.00,2013-08-11 10:51:00,
2013-08-11 03:56:00,52.9,26.7,23.62,ESE,119,0.0,0.0,36,0.00,,---,0.00,VWS V14.00,2013-08-11 10:56:00,
2013-08-11 04:01:00,52.5,26.4,23.62,ESE,119,0.0,0.0,36,0.00,,---,0.00,VWS V14.00,2013-08-11 11:01:00,
2013-08-11 04:06:00,52.5,26.4,23.62,ESE,119,0.0,0.0,36,0.00,,---,0.00,VWS V14.00,2013-08-11 11:06:00,
2013-08-11 04:11:00,52.3,26.2,23.62,ESE,119,0.0,0.0,36,0.00,,---,0.00,VWS V14.00,2013-08-11 11:11:00,
2013-08-11 04:17:00,52.2,26.7,23.65,ESE,119,0.0,0.0,37,0.00,,---,0.00,VWS V14.00,2013-08-11 11:17:00,
2013-08-11 04:22:00,52.0,26.5,23.65,ESE,119,0.0,0.0,37,0.00,,---,0.00,VWS V14.00,2013-08-11 11:22:00,
2013-08-11 04:27:00,51.8,26.4,23.65,ESE,119,0.0,0.0,37,0.00,,---,0.00,VWS V14.00,2013-08-11 11:27:00,
2013-08-11 04:32:00,51.6,26.2,23.62,ESE,119,0.0,0.0,37,0.00,,---,0.00,VWS V14.00,2013-08-11 11:32:00,
2013-08-11 04:38:00,51.4,26.0,23.62,ESE,119,0.0,0.0,37,0.00,,---,0.00,VWS V14.00,2013-08-11 11:38:00,
2013-08-11 04:43:00,51.4,26.0,23.62,ESE,119,0.0,0.0,37,0.00,,---,0.00,VWS V14.00,2013-08-11 11:43:00,
2013-08-11 04:48:00,51.3,25.9,23.62,ESE,119,0.0,0.0,37,0.00,,---,0.00,VWS V14.00,2013-08-11 11:48:00,
2013-08-11 04:53:00,51.3,25.9,23.62,ESE,119,0.0,0.0,37,0.00,,---,0.00,VWS V14.00,2013-08-11 11:53:00,
2013-08-11 04:58:00,51.3,25.9,23.62,ESE,119,0.0,0.0,37,0.00,,---,0.00,VWS V14.00,2013-08-11 11:58:00,
2013-08-11 05:03:00,51.1,25.7,23.62,ESE,119,0.0,0.0,37,0.00,,---,0.00,VWS V14.00,2013-08-11 12:03:00,
2013-08-11 05:09:00,51.1,25.7,23.62,ESE,119,0.0,0.0,37,0.00,,---,0.00,VWS V14.00,2013-08-11 12:09:00,
2013-08-11 05:14:00,50.9,25.6,23.62,ESE,119,0.0,0.0,37,0.00,,---,0.00,VWS V14.00,2013-08-11 12:14:00,
2013-08-11 05:19:00,50.9,25.6,23.62,ESE,119,0.0,0.0,37,0.00,,---,0.00,VWS V14.00,2013-08-11 12:19:00,
2013-08-11 05:24:00,50.5,25.2,23.62,ESE,119,0.0,0.0,37,0.00,,---,0.00,VWS V14.00,2013-08-11 12:24:00,
2013-08-11 05:29:00,50.5,25.2,23.62,ESE,119,0.0,0.0,37,0.00,,---,0.00,VWS V14.00,2013-08-11 12:29:00,
2013-08-11 05:34:00,50.5,25.2,23.65,ESE,119,0.0,0.0,37,0.00,,---,0.00,VWS V14.00,2013-08-11 12:34:00,
2013-08-11 05:40:00,50.2,24.9,23.65,ESE,119,0.0,0.0,37,0.00,,---,0.00,VWS V14.00,2013-08-11 12:40:00,
2013-08-11 05:45:00,50.2,24.9,23.65,ESE,119,0.0,0.0,37,0.00,,---,0.00,VWS V14.00,2013-08-11 12:45:00,
2013-08-11 05:50:00,50.0,24.8,23.65,ESE,119,0.0,0.0,37,0.00,,---,0.00,VWS V14.00,2013-08-11 12:50:00,
2013-08-11 05:55:00,50.0,24.8,23.65,ESE,119,0.0,0.0,37,0.00,,---,0.00,VWS V14.00,2013-08-11 12:55:00,
2013-08-11 06:00:00,49.8,25.2,23.65,ESE,119,0.0,0.0,38,0.00,,---,0.00,VWS V14.00,2013-08-11 13:00:00,
2013-08-11 06:05:00,49.8,25.2,23.65,ESE,119,0.0,0.0,38,0.00,,---,0.00,VWS V14.00,2013-08-11 13:05:00,
2013-08-11 06:10:00,49.6,25.1,23.65,ESE,119,0.0,0.0,38,0.00,,---,0.00,VWS V14.00,2013-08-11 13:10:00,
2013-08-11 06:15:00,49.6,25.1,23.65,ESE,119,0.0,0.0,38,0.00,,---,0.00,VWS V14.00,2013-08-11 13:15:00,
2013-08-11 06:20:00,49.8,25.2,23.65,ESE,119,0.0,0.0,38,0.00,,---,0.00,VWS V14.00,2013-08-11 13:20:00,
2013-08-11 06:26:00,49.8,25.2,23.65,ESE,119,0.0,0.0,38,0.00,,---,0.00,VWS V14.00,2013-08-11 13:26:00,
2013-08-11 06:31:00,49.8,25.2,23.62,ESE,119,0.0,0.0,38,0.00,,---,0.00,VWS V14.00,2013-08-11 13:31:00,
2013-08-11 06:36:00,50.0,24.8,23.62,ESE,118,0.0,0.0,37,0.00,,---,0.00,VWS V14.00,2013-08-11 13:36:00,
2013-08-11 06:41:00,50.2,25.6,23.62,ESE,118,0.0,0.0,38,0.00,,---,0.00,VWS V14.00,2013-08-11 13:41:00,
2013-08-11 06:46:00,50.5,25.9,23.65,ESE,118,0.0,0.0,38,0.00,,---,0.00,VWS V14.00,2013-08-11 13:46:00,
2013-08-11 06:51:00,50.9,26.2,23.65,NNE,28,0.0,0.0,38,0.00,,---,0.00,VWS V14.00,2013-08-11 13:51:00,
2013-08-11 06:56:00,51.3,26.5,23.65,NNE,28,0.0,0.0,38,0.00,,---,0.00,VWS V14.00,2013-08-11 13:56:00,
2013-08-11 07:01:00,51.6,26.9,23.65,NNE,28,0.0,0.0,38,0.00,,---,0.00,VWS V14.00,2013-08-11 14:01:00,
2013-08-11 07:06:00,52.0,26.5,23.65,NNE,27,0.0,0.0,37,0.00,,---,0.00,VWS V14.00,2013-08-11 14:06:00,
2013-08-11 07:11:00,52.5,27.0,23.65,NNE,28,0.0,0.0,37,0.00,,---,0.00,VWS V14.00,2013-08-11 14:11:00,
2013-08-11 07:16:00,53.1,27.5,23.65,NNE,27,0.0,0.0,37,0.00,,---,0.00,VWS V14.00,2013-08-11 14:16:00,
2013-08-11 07:22:00,53.6,28.0,23.65,NNE,27,0.0,0.0,37,0.00,,---,0.00,VWS V14.00,2013-08-11 14:22:00,
2013-08-11 07:27:00,54.3,28.6,23.65,NNE,28,0.0,0.0,37,0.00,,---,0.00,VWS V14.00,2013-08-11 14:27:00,
2013-08-11 07:33:00,55.2,29.4,23.65,NNE,28,0.0,0.0,37,0.00,,---,0.00,VWS V14.00,2013-08-11 14:33:00,
2013-08-11 07:39:00,55.9,29.4,23.65,NNE,28,0.0,0.0,36,0.00,,---,0.00,VWS V14.00,2013-08-11 14:39:00,
2013-08-11 07:45:00,56.8,30.2,23.65,NNE,28,0.0,0.0,36,0.00,,---,0.00,VWS V14.00,2013-08-11 14:45:00,
2013-08-11 07:50:00,57.6,30.8,23.65,NNE,27,0.0,0.0,36,0.00,,---,0.00,VWS V14.00,2013-08-11 14:50:00,
2013-08-11 07:55:00,58.3,31.5,23.65,NNE,28,0.0,0.0,36,0.00,,---,0.00,VWS V14.00,2013-08-11 14:55:00,
2013-08-11 08:00:00,58.8,31.2,23.65,NW,306,3.1,4.0,35,0.00,,---,0.00,VWS V14.00,2013-08-11 15:00:00,
2013-08-11 08:06:00,59.5,31.9,23.65,WNW,299,2.2,2.7,35,0.00,,---,0.00,VWS V14.00,2013-08-11 15:06:00,
2013-08-11 08:11:00,60.3,32.5,23.65,WNW,299,0.0,0.0,35,0.00,,---,0.00,VWS V14.00,2013-08-11 15:11:00,
2013-08-11 08:16:00,60.8,32.3,23.65,West,277,3.1,5.4,34,0.00,,---,0.00,VWS V14.00,2013-08-11 15:16:00,
2013-08-11 08:21:00,61.3,32.8,23.65,SW,233,0.0,0.0,34,0.00,,---,0.00,VWS V14.00,2013-08-11 15:21:00,
2013-08-11 08:26:00,61.9,33.2,23.65,WNW,284,2.7,2.7,34,0.00,,---,0.00,VWS V14.00,2013-08-11 15:26:00,
2013-08-11 08:32:00,62.2,33.5,23.65,WSW,252,3.1,3.1,34,0.00,,---,0.00,VWS V14.00,2013-08-11 15:32:00,
2013-08-11 08:37:00,62.6,33.9,23.65,SSW,211,2.7,4.0,34,0.00,,---,0.00,VWS V14.00,2013-08-11 15:37:00,
2013-08-11 08:43:00,63.1,34.3,23.65,WNW,289,0.0,0.0,34,0.00,,---,0.00,VWS V14.00,2013-08-11 15:43:00,
2013-08-11 08:48:00,63.5,34.7,23.65,West,273,0.0,2.7,34,0.00,,---,0.00,VWS V14.00,2013-08-11 15:48:00,
2013-08-11 08:53:00,63.9,35.0,23.65,West,276,0.0,0.0,34,0.00,,---,0.00,VWS V14.00,2013-08-11 15:53:00,
2013-08-11 08:58:00,64.4,34.7,23.65,West,279,3.1,3.1,33,0.00,,---,0.00,VWS V14.00,2013-08-11 15:58:00,
2013-08-11 09:03:00,64.8,35.0,23.65,West,270,2.7,3.6,33,0.00,,---,0.00,VWS V14.00,2013-08-11 16:03:00,
2013-08-11 09:09:00,65.1,35.3,23.65,WNW,303,0.0,3.6,33,0.00,,---,0.00,VWS V14.00,2013-08-11 16:09:00,
2013-08-11 09:14:00,65.5,35.6,23.65,SE,140,0.0,3.1,33,0.00,,---,0.00,VWS V14.00,2013-08-11 16:14:00,
2013-08-11 09:19:00,65.8,36.0,23.65,West,271,0.0,0.0,33,0.00,,---,0.00,VWS V14.00,2013-08-11 16:19:00,
2013-08-11 09:24:00,66.2,36.3,23.65,West,271,0.0,0.0,33,0.00,,---,0.00,VWS V14.00,2013-08-11 16:24:00,
2013-08-11 09:29:00,66.6,36.6,23.65,South,183,0.0,0.0,33,0.00,,---,0.00,VWS V14.00,2013-08-11 16:29:00,
2013-08-11 09:35:00,66.7,36.8,23.65,West,269,0.0,3.1,33,0.00,,---,0.00,VWS V14.00,2013-08-11 16:35:00,
2013-08-11 09:40:00,66.9,36.9,23.65,WNW,284,0.0,2.7,33,0.00,,---,0.00,VWS V14.00,2013-08-11 16:40:00,
2013-08-11 09:45:00,67.3,37.2,23.65,SE,130,0.0,0.0,33,0.00,,---,0.00,VWS V14.00,2013-08-11 16:45:00,
2013-08-11 09:50:00,67.6,37.5,23.65,SE,132,0.0,0.0,33,0.00,,---,0.00,VWS V14.00,2013-08-11 16:50:00,
2013-08-11 09:55:00,68.0,37.8,23.65,North,353,0.0,0.0,33,0.00,,---,0.00,VWS V14.00,2013-08-11 16:55:00,
2013-08-11 10:01:00,68.2,38.0,23.65,WNW,285,2.2,4.9,33,0.00,,---,0.00,VWS V14.00,2013-08-11 17:01:00,
2013-08-11 10:06:00,68.4,38.2,23.65,NW,319,3.6,3.6,33,0.00,,---,0.00,VWS V14.00,2013-08-11 17:06:00,
2013-08-11 10:12:00,68.9,38.6,23.65,South,187,3.6,3.6,33,0.00,,---,0.00,VWS V14.00,2013-08-11 17:12:00,
2013-08-11 10:17:00,69.3,39.0,23.65,NNE,21,0.0,0.0,33,0.00,,---,0.00,VWS V14.00,2013-08-11 17:17:00,
2013-08-11 10:22:00,69.8,38.6,23.65,SSW,202,0.0,0.0,32,0.00,,---,0.00,VWS V14.00,2013-08-11 17:22:00,
2013-08-11 10:28:00,70.0,38.8,23.65,SSW,202,0.0,0.0,32,0.00,,---,0.00,VWS V14.00,2013-08-11 17:28:00,
2013-08-11 10:33:00,70.0,38.8,23.62,WNW,289,0.0,0.0,32,0.00,,---,0.00,VWS V14.00,2013-08-11 17:33:00,
2013-08-11 10:38:00,70.2,39.0,23.62,WNW,282,3.6,5.4,32,0.00,,---,0.00,VWS V14.00,2013-08-11 17:38:00,
2013-08-11 10:43:00,70.3,39.1,23.62,NNW,336,2.7,3.1,32,0.00,,---,0.00,VWS V14.00,2013-08-11 17:43:00,
2013-08-11 10:48:00,70.5,39.3,23.62,NW,307,4.0,5.4,32,0.00,,---,0.00,VWS V14.00,2013-08-11 17:48:00,
2013-08-11 10:54:00,71.1,39.7,23.62,North,9,0.0,4.9,32,0.00,,---,0.00,VWS V14.00,2013-08-11 17:54:00,
2013-08-11 10:59:00,71.6,40.2,23.62,WNW,288,3.1,3.1,32,0.00,,---,0.00,VWS V14.00,2013-08-11 17:59:00,
2013-08-11 11:04:00,71.8,40.4,23.62,West,261,0.0,0.0,32,0.00,,---,0.00,VWS V14.00,2013-08-11 18:04:00,
2013-08-11 11:09:00,71.8,40.4,23.62,WNW,284,0.0,0.0,32,0.00,,---,0.00,VWS V14.00,2013-08-11 18:09:00,
2013-08-11 11:15:00,72.0,40.5,23.62,WSW,248,3.1,3.1,32,0.00,,---,0.00,VWS V14.00,2013-08-11 18:15:00,
2013-08-11 11:20:00,72.0,40.5,23.62,NW,320,0.0,0.0,32,0.00,,---,0.00,VWS V14.00,2013-08-11 18:20:00,
2013-08-11 11:26:00,72.0,40.5,23.62,NW,323,0.0,0.0,32,0.00,,---,0.00,VWS V14.00,2013-08-11 18:26:00,
2013-08-11 11:31:00,72.0,40.5,23.62,East,90,2.2,4.0,32,0.00,,---,0.00,VWS V14.00,2013-08-11 18:31:00,
2013-08-11 11:37:00,72.3,40.8,23.62,West,277,2.7,5.8,32,0.00,,---,0.00,VWS V14.00,2013-08-11 18:37:00,
2013-08-11 11:42:00,72.9,41.3,23.62,South,176,5.4,5.4,32,0.00,,---,0.00,VWS V14.00,2013-08-11 18:42:00,
2013-08-11 11:48:00,73.4,41.0,23.62,SSW,209,2.2,2.2,31,0.00,,---,0.00,VWS V14.00,2013-08-11 18:48:00,
2013-08-11 11:53:00,73.9,41.4,23.62,SE,142,0.0,0.0,31,0.00,,---,0.00,VWS V14.00,2013-08-11 18:53:00,
2013-08-11 11:58:00,73.9,41.4,23.62,SSE,158,2.7,2.7,31,0.00,,---,0.00,VWS V14.00,2013-08-11 18:58:00,
2013-08-11 12:04:00,73.8,41.3,23.62,SSE,158,0.0,0.0,31,0.00,,---,0.00,VWS V14.00,2013-08-11 19:04:00,
2013-08-11 12:09:00,73.6,41.1,23.62,ENE,73,0.0,0.0,31,0.00,,---,0.00,VWS V14.00,2013-08-11 19:09:00,
2013-08-11 12:15:00,73.6,41.1,23.62,WNW,295,0.0,0.0,31,0.00,,---,0.00,VWS V14.00,2013-08-11 19:15:00,
2013-08-11 12:20:00,73.9,41.4,23.62,SSE,166,3.1,4.0,31,0.00,,---,0.00,VWS V14.00,2013-08-11 19:20:00,
2013-08-11 12:25:00,74.3,41.7,23.62,SW,224,0.0,0.0,31,0.00,,---,0.00,VWS V14.00,2013-08-11 19:25:00,
2013-08-11 12:30:00,74.5,41.9,23.62,SSE,156,3.6,4.0,31,0.00,,---,0.00,VWS V14.00,2013-08-11 19:30:00,
2013-08-11 12:35:00,73.9,41.4,23.62,SSE,150,2.2,4.9,31,0.00,,---,0.00,VWS V14.00,2013-08-11 19:35:00,
2013-08-11 12:40:00,73.2,41.6,23.62,SSE,163,5.4,5.4,32,0.00,,---,0.00,VWS V14.00,2013-08-11 19:40:00,
2013-08-11 12:46:00,72.1,40.7,23.62,SE,126,5.4,5.4,32,0.00,,---,0.00,VWS V14.00,2013-08-11 19:46:00,
2013-08-11 12:51:00,70.7,39.4,23.62,SE,142,4.0,4.0,32,0.00,,---,0.00,VWS V14.00,2013-08-11 19:51:00,
2013-08-11 12:56:00,69.6,39.3,23.62,SE,132,3.1,3.6,33,0.00,,---,0.00,VWS V14.00,2013-08-11 19:56:00,
2013-08-11 13:01:00,68.5,38.3,23.62,SE,132,3.1,3.1,33,0.00,,---,0.00,VWS V14.00,2013-08-11 20:01:00,
2013-08-11 13:06:00,67.5,37.4,23.62,ESE,115,2.7,3.6,33,0.00,,---,0.00,VWS V14.00,2013-08-11 20:06:00,
2013-08-11 13:12:00,66.7,36.8,23.62,ESE,115,2.7,3.6,33,0.00,,---,0.00,VWS V14.00,2013-08-11 20:12:00,
2013-08-11 13:17:00,66.2,36.3,23.62,ENE,75,0.0,3.1,33,0.00,,---,0.00,VWS V14.00,2013-08-11 20:17:00,
2013-08-11 13:22:00,66.0,36.1,23.62,ESE,105,2.2,3.1,33,0.00,,---,0.00,VWS V14.00,2013-08-11 20:22:00,
2013-08-11 13:27:00,65.8,36.0,23.62,ESE,115,2.7,3.1,33,0.00,,---,0.00,VWS V14.00,2013-08-11 20:27:00,
2013-08-11 13:32:00,65.7,35.8,23.62,ESE,123,0.0,0.0,33,0.00,,---,0.00,VWS V14.00,2013-08-11 20:32:00,
2013-08-11 13:38:00,65.5,35.6,23.62,SE,133,3.6,3.6,33,0.00,,---,0.00,VWS V14.00,2013-08-11 20:38:00,
2013-08-11 13:43:00,65.1,35.3,23.62,SE,130,2.7,4.0,33,0.00,,---,0.00,VWS V14.00,2013-08-11 20:43:00,
2013-08-11 13:49:00,64.8,35.0,23.62,ESE,120,4.0,4.0,33,0.00,,---,0.00,VWS V14.00,2013-08-11 20:49:00,
2013-08-11 13:54:00,64.9,35.2,23.62,ESE,113,0.0,0.0,33,0.00,,---,0.00,VWS V14.00,2013-08-11 20:54:00,
2013-08-11 13:59:00,65.1,35.3,23.62,SE,126,0.0,4.0,33,0.00,,---,0.00,VWS V14.00,2013-08-11 20:59:00,
2013-08-11 14:05:00,66.0,36.1,23.62,ESE,113,0.0,2.2,33,0.00,,---,0.00,VWS V14.00,2013-08-11 21:05:00,
2013-08-11 14:10:00,66.6,36.6,23.62,SE,134,4.0,4.0,33,0.00,,---,0.00,VWS V14.00,2013-08-11 21:10:00,
2013-08-11 14:16:00,67.3,37.2,23.62,ENE,75,0.0,0.0,33,0.00,,---,0.00,VWS V14.00,2013-08-11 21:16:00,
2013-08-11 14:21:00,68.2,38.0,23.62,SE,129,2.7,5.8,33,0.00,,---,0.00,VWS V14.00,2013-08-11 21:21:00,
2013-08-11 14:27:00,68.5,38.3,23.62,SE,130,0.0,3.6,33,0.00,,---,0.00,VWS V14.00,2013-08-11 21:27:00,
2013-08-11 14:32:00,69.1,38.8,23.62,ESE,114,2.7,5.8,33,0.00,,---,0.00,VWS V14.00,2013-08-11 21:32:00,
2013-08-11 14:37:00,69.6,39.3,23.62,ESE,108,5.4,5.4,33,0.00,,---,0.00,VWS V14.00,2013-08-11 21:37:00,
2013-08-11 14:42:00,70.0,38.8,23.62,East,82,6.3,6.3,32,0.00,,---,0.00,VWS V14.00,2013-08-11 21:42:00,
2013-08-11 14:48:00,70.2,39.0,23.62,SE,135,5.4,5.8,32,0.00,,---,0.00,VWS V14.00,2013-08-11 21:48:00,
2013-08-11 14:53:00,70.2,39.0,23.62,South,181,4.0,4.0,32,0.00,,---,0.00,VWS V14.00,2013-08-11 21:53:00,
2013-08-11 14:59:00,69.6,39.3,23.62,SE,138,5.8,6.3,33,0.00,,---,0.00,VWS V14.00,2013-08-11 21:59:00,
2013-08-11 15:04:00,69.4,39.1,23.62,ESE,112,5.8,6.3,33,0.00,,---,0.00,VWS V14.00,2013-08-11 22:04:00,
2013-08-11 15:10:00,69.4,39.1,23.62,NNE,16,3.6,6.7,33,0.00,,---,0.00,VWS V14.00,2013-08-11 22:10:00,
2013-08-11 15:15:00,69.3,39.0,23.62,South,177,7.6,7.6,33,0.00,,---,0.00,VWS V14.00,2013-08-11 22:15:00,
2013-08-11 15:21:00,69.3,39.0,23.62,SSE,153,4.9,8.1,33,0.00,,---,0.00,VWS V14.00,2013-08-11 22:21:00,
2013-08-11 15:26:00,69.6,39.3,23.62,SE,134,5.4,5.8,33,0.00,,---,0.00,VWS V14.00,2013-08-11 22:26:00,
2013-08-11 15:32:00,69.6,39.3,23.62,East,96,5.8,8.1,33,0.00,,---,0.00,VWS V14.00,2013-08-11 22:32:00,
2013-08-11 15:37:00,69.6,39.3,23.62,SE,133,7.6,7.6,33,0.00,,---,0.00,VWS V14.00,2013-08-11 22:37:00,
2013-08-11 15:42:00,69.1,38.8,23.62,East,94,4.0,7.2,33,0.00,,---,0.00,VWS V14.00,2013-08-11 22:42:00,
2013-08-11 15:48:00,68.5,38.3,23.62,SE,127,2.7,3.1,33,0.00,,---,0.00,VWS V14.00,2013-08-11 22:48:00,
2013-08-11 15:53:00,68.7,38.5,23.62,ESE,116,3.6,3.6,33,0.00,,---,0.00,VWS V14.00,2013-08-11 22:53:00,
2013-08-11 15:58:00,68.5,38.3,23.62,SE,140,3.6,5.8,33,0.00,,---,0.00,VWS V14.00,2013-08-11 22:58:00,
2013-08-11 16:03:00,68.5,38.3,23.59,SSE,167,5.4,6.3,33,0.00,,---,0.00,VWS V14.00,2013-08-11 23:03:00,
2013-08-11 16:08:00,68.2,38.0,23.59,ESE,115,2.2,4.0,33,0.00,,---,0.00,VWS V14.00,2013-08-11 23:08:00,
2013-08-11 16:13:00,68.4,38.2,23.59,ESE,120,5.8,5.8,33,0.00,,---,0.00,VWS V14.00,2013-08-11 23:13:00,
2013-08-11 16:18:00,68.7,38.5,23.59,East,100,3.1,4.9,33,0.00,,---,0.00,VWS V14.00,2013-08-11 23:18:00,
2013-08-11 16:24:00,68.9,38.6,23.59,East,80,0.0,5.4,33,0.00,,---,0.00,VWS V14.00,2013-08-11 23:24:00,
2013-08-11 16:29:00,68.5,38.3,23.59,SSE,153,3.6,5.4,33,0.00,,---,0.00,VWS V14.00,2013-08-11 23:29:00,
2013-08-11 16:34:00,68.4,38.2,23.59,East,89,2.2,2.2,33,0.00,,---,0.00,VWS V14.00,2013-08-11 23:34:00,
2013-08-11 16:40:00,68.2,38.0,23.59,ESE,104,0.0,0.0,33,0.00,,---,0.00,VWS V14.00,2013-08-11 23:40:00,
2013-08-11 16:45:00,68.0,37.8,23.59,ESE,116,2.7,3.6,33,0.00,,---,0.00,VWS V14.00,2013-08-11 23:45:00,
2013-08-11 16:50:00,68.2,38.0,23.59,North,357,5.4,5.4,33,0.00,,---,0.00,VWS V14.00,2013-08-11 23:50:00,
2013-08-11 16:55:00,68.7,38.5,23.59,SE,136,3.6,5.8,33,0.00,,---,0.00,VWS V14.00,2013-08-11 23:55:00,
2013-08-11 17:00:00,69.1,38.8,23.59,ESE,113,3.6,5.8,33,0.00,,---,0.00,VWS V14.00,2013-08-12 00:00:00,
2013-08-11 17:05:00,69.3,39.0,23.59,SE,140,5.4,5.4,33,0.00,,---,0.00,VWS V14.00,2013-08-12 00:05:00,
2013-08-11 17:11:00,69.3,39.0,23.59,SE,145,5.4,5.4,33,0.00,,---,0.00,VWS V14.00,2013-08-12 00:11:00,
2013-08-11 17:17:00,69.1,38.8,23.56,ESE,109,3.6,3.6,33,0.00,,---,0.00,VWS V14.00,2013-08-12 00:17:00,
2013-08-11 17:22:00,68.9,38.6,23.56,ESE,114,0.0,0.0,33,0.00,,---,0.00,VWS V14.00,2013-08-12 00:22:00,
2013-08-11 17:27:00,68.7,38.5,23.56,East,85,0.0,0.0,33,0.00,,---,0.00,VWS V14.00,2013-08-12 00:27:00,
2013-08-11 17:32:00,68.9,38.6,23.59,NE,41,0.0,0.0,33,0.00,,---,0.00,VWS V14.00,2013-08-12 00:32:00,
2013-08-11 17:37:00,69.3,39.0,23.59,North,357,2.7,2.7,33,0.00,,---,0.00,VWS V14.00,2013-08-12 00:37:00,
2013-08-11 17:43:00,69.8,38.6,23.59,ENE,69,0.0,0.0,32,0.00,,---,0.00,VWS V14.00,2013-08-12 00:43:00,
2013-08-11 17:48:00,70.2,39.0,23.59,ENE,62,0.0,2.7,32,0.00,,---,0.00,VWS V14.00,2013-08-12 00:48:00,
2013-08-11 17:53:00,70.3,39.1,23.59,NNW,341,3.6,3.6,32,0.00,,---,0.00,VWS V14.00,2013-08-12 00:53:00,
2013-08-11 17:58:00,70.3,39.1,23.59,NNW,334,0.0,0.0,32,0.00,,---,0.00,VWS V14.00,2013-08-12 00:58:00,
2013-08-11 18:03:00,70.0,38.8,23.59,NW,326,0.0,0.0,32,0.00,,---,0.00,VWS V14.00,2013-08-12 01:03:00,
2013-08-11 18:09:00,69.4,39.1,23.59,ESE,109,2.2,2.2,33,0.00,,---,0.00,VWS V14.00,2013-08-12 01:09:00,
2013-08-11 18:14:00,68.9,38.6,23.59,ESE,109,0.0,0.0,33,0.00,,---,0.00,VWS V14.00,2013-08-12 01:14:00,
2013-08-11 18:20:00,68.4,38.2,23.59,ESE,109,0.0,0.0,33,0.00,,---,0.00,VWS V14.00,2013-08-12 01:20:00,
2013-08-11 18:25:00,67.8,37.7,23.59,ESE,109,0.0,0.0,33,0.00,,---,0.00,VWS V14.00,2013-08-12 01:25:00,
2013-08-11 18:30:00,67.5,37.4,23.59,ESE,109,0.0,0.0,33,0.00,,---,0.00,VWS V14.00,2013-08-12 01:30:00,
2013-08-11 18:36:00,66.9,36.9,23.59,ESE,109,0.0,0.0,33,0.00,,---,0.00,VWS V14.00,2013-08-12 01:36:00,
2013-08-11 18:41:00,66.6,36.6,23.59,ESE,109,0.0,0.0,33,0.00,,---,0.00,VWS V14.00,2013-08-12 01:41:00,
2013-08-11 18:46:00,66.4,36.4,23.59,ESE,109,0.0,0.0,33,0.00,,---,0.00,VWS V14.00,2013-08-12 01:46:00,
2013-08-11 18:51:00,66.0,36.1,23.59,ESE,109,0.0,0.0,33,0.00,,---,0.00,VWS V14.00,2013-08-12 01:51:00,
2013-08-11 18:56:00,65.8,36.0,23.59,ESE,109,0.0,0.0,33,0.00,,---,0.00,VWS V14.00,2013-08-12 01:56:00,
2013-08-11 19:02:00,65.5,35.6,23.59,ESE,109,0.0,0.0,33,0.00,,---,0.00,VWS V14.00,2013-08-12 02:02:00,
2013-08-11 19:07:00,65.1,35.3,23.59,ESE,109,0.0,0.0,33,0.00,,---,0.00,VWS V14.00,2013-08-12 02:07:00,
2013-08-11 19:12:00,64.8,35.0,23.59,ESE,109,0.0,0.0,33,0.00,,---,0.00,VWS V14.00,2013-08-12 02:12:00,
2013-08-11 19:18:00,64.4,34.7,23.59,ESE,109,0.0,0.0,33,0.00,,---,0.00,VWS V14.00,2013-08-12 02:18:00,
2013-08-11 19:24:00,64.0,35.1,23.59,ESE,109,0.0,0.0,34,0.00,,---,0.00,VWS V14.00,2013-08-12 02:24:00,
2013-08-11 19:29:00,63.5,34.7,23.59,ESE,109,0.0,0.0,34,0.00,,---,0.00,VWS V14.00,2013-08-12 02:29:00,
2013-08-11 19:34:00,63.3,34.5,23.59,ESE,109,0.0,0.0,34,0.00,,---,0.00,VWS V14.00,2013-08-12 02:34:00,
2013-08-11 19:39:00,63.1,34.3,23.59,ESE,109,0.0,0.0,34,0.00,,---,0.00,VWS V14.00,2013-08-12 02:39:00,
2013-08-11 19:44:00,62.8,34.0,23.59,ESE,109,0.0,0.0,34,0.00,,---,0.00,VWS V14.00,2013-08-12 02:44:00,
2013-08-11 19:49:00,62.4,33.7,23.59,ESE,109,0.0,0.0,34,0.00,,---,0.00,VWS V14.00,2013-08-12 02:49:00,
2013-08-11 19:54:00,62.1,33.4,23.59,ESE,109,0.0,0.0,34,0.00,,---,0.00,VWS V14.00,2013-08-12 02:54:00,
2013-08-11 20:00:00,61.7,33.1,23.59,ESE,109,0.0,0.0,34,0.00,,---,0.00,VWS V14.00,2013-08-12 03:00:00,
2013-08-11 20:05:00,61.3,32.8,23.59,ESE,109,0.0,0.0,34,0.00,,---,0.00,VWS V14.00,2013-08-12 03:05:00,
2013-08-11 20:10:00,61.2,32.6,23.59,ESE,109,0.0,0.0,34,0.00,,---,0.00,VWS V14.00,2013-08-12 03:10:00,
2013-08-11 20:15:00,61.0,32.4,23.59,ESE,109,0.0,0.0,34,0.00,,---,0.00,VWS V14.00,2013-08-12 03:15:00,
2013-08-11 20:21:00,60.8,32.3,23.62,ESE,111,0.0,0.0,34,0.00,,---,0.00,VWS V14.00,2013-08-12 03:21:00,
2013-08-11 20:26:00,60.6,32.8,23.62,ESE,111,0.0,0.0,35,0.00,,---,0.00,VWS V14.00,2013-08-12 03:26:00,
2013-08-11 20:31:00,60.6,32.8,23.62,ESE,111,0.0,0.0,35,0.00,,---,0.00,VWS V14.00,2013-08-12 03:31:00,
2013-08-11 20:36:00,60.4,32.7,23.62,ESE,111,0.0,0.0,35,0.00,,---,0.00,VWS V14.00,2013-08-12 03:36:00,
2013-08-11 20:42:00,60.3,32.5,23.62,ESE,111,0.0,0.0,35,0.00,,---,0.00,VWS V14.00,2013-08-12 03:42:00,
2013-08-11 20:47:00,60.1,32.4,23.62,ESE,111,0.0,0.0,35,0.00,,---,0.00,VWS V14.00,2013-08-12 03:47:00,
2013-08-11 20:52:00,60.1,32.4,23.62,ESE,111,0.0,0.0,35,0.00,,---,0.00,VWS V14.00,2013-08-12 03:52:00,
2013-08-11 20:58:00,59.9,32.2,23.62,East,100,0.0,0.0,35,0.00,,---,0.00,VWS V14.00,2013-08-12 03:58:00,
2013-08-11 21:01:00,59.9,32.2,23.62,East,100,0.0,0.0,35,0.00,,---,0.00,VWS V14.00,2013-08-12 04:01:00,
2013-08-11 21:02:00,59.7,32.0,23.62,East,100,0.0,0.0,35,0.00,,---,0.00,VWS V14.00,2013-08-12 04:02:00,
2013-08-11 21:04:00,59.7,32.0,23.62,East,100,0.0,0.0,35,0.00,,---,0.00,VWS V14.00,2013-08-12 04:04:00,
2013-08-11 21:09:00,59.7,32.0,23.62,East,100,0.0,0.0,35,0.00,,---,0.00,VWS V14.00,2013-08-12 04:09:00,
2013-08-11 21:15:00,59.5,31.9,23.62,East,99,0.0,0.0,35,0.00,,---,0.00,VWS V14.00,2013-08-12 04:15:00,
2013-08-11 21:20:00,59.4,31.7,23.62,East,99,0.0,0.0,35,0.00,,---,0.00,VWS V14.00,2013-08-12 04:20:00,
2013-08-11 21:25:00,59.4,31.7,23.62,East,99,0.0,0.0,35,0.00,,---,0.00,VWS V14.00,2013-08-12 04:25:00,
2013-08-11 21:30:00,59.2,31.6,23.62,East,99,0.0,0.0,35,0.00,,---,0.00,VWS V14.00,2013-08-12 04:30:00,
2013-08-11 21:35:00,59.2,31.6,23.62,East,99,0.0,0.0,35,0.00,,---,0.00,VWS V14.00,2013-08-12 04:35:00,
2013-08-11 21:40:00,59.0,31.4,23.62,East,99,0.0,0.0,35,0.00,,---,0.00,VWS V14.00,2013-08-12 04:40:00,
2013-08-11 21:45:00,58.8,31.2,23.62,East,99,0.0,0.0,35,0.00,,---,0.00,VWS V14.00,2013-08-12 04:45:00,
2013-08-11 21:50:00,58.6,31.1,23.62,East,99,0.0,0.0,35,0.00,,---,0.00,VWS V14.00,2013-08-12 04:50:00,
2013-08-11 21:56:00,58.6,31.1,23.62,East,99,0.0,0.0,35,0.00,,---,0.00,VWS V14.00,2013-08-12 04:56:00,
2013-08-11 22:01:00,58.5,30.9,23.62,East,99,0.0,0.0,35,0.00,,---,0.00,VWS V14.00,2013-08-12 05:01:00,
2013-08-11 22:06:00,58.5,30.9,23.62,East,99,0.0,0.0,35,0.00,,---,0.00,VWS V14.00,2013-08-12 05:06:00,
2013-08-11 22:11:00,58.3,30.8,23.62,East,99,0.0,0.0,35,0.00,,---,0.00,VWS V14.00,2013-08-12 05:11:00,
2013-08-11 22:16:00,58.3,30.8,23.62,East,99,0.0,0.0,35,0.00,,---,0.00,VWS V14.00,2013-08-12 05:16:00,
2013-08-11 22:21:00,58.1,30.6,23.62,East,99,0.0,0.0,35,0.00,,---,0.00,VWS V14.00,2013-08-12 05:21:00,
2013-08-11 22:26:00,58.1,30.6,23.62,East,99,0.0,0.0,35,0.00,,---,0.00,VWS V14.00,2013-08-12 05:26:00,
2013-08-11 22:31:00,58.1,30.6,23.62,East,99,0.0,0.0,35,0.00,,---,0.00,VWS V14.00,2013-08-12 05:31:00,
2013-08-11 22:36:00,57.9,30.5,23.62,East,99,0.0,0.0,35,0.00,,---,0.00,VWS V14.00,2013-08-12 05:36:00,
2013-08-11 22:41:00,57.9,30.5,23.62,East,99,0.0,0.0,35,0.00,,---,0.00,VWS V14.00,2013-08-12 05:41:00,
2013-08-11 22:46:00,57.6,30.1,23.62,East,99,0.0,0.0,35,0.00,,---,0.00,VWS V14.00,2013-08-12 05:46:00,
2013-08-11 22:51:00,57.4,30.0,23.62,East,99,0.0,0.0,35,0.00,,---,0.00,VWS V14.00,2013-08-12 05:51:00,
2013-08-11 22:56:00,57.2,29.8,23.62,East,99,0.0,0.0,35,0.00,,---,0.00,VWS V14.00,2013-08-12 05:56:00,
2013-08-11 23:01:00,57.2,29.8,23.62,East,99,0.0,0.0,35,0.00,,---,0.00,VWS V14.00,2013-08-12 06:01:00,
2013-08-11 23:06:00,57.0,29.7,23.62,East,99,0.0,0.0,35,0.00,,---,0.00,VWS V14.00,2013-08-12 06:06:00,
2013-08-11 23:11:00,56.8,29.5,23.62,East,99,0.0,0.0,35,0.00,,---,0.00,VWS V14.00,2013-08-12 06:11:00,
2013-08-11 23:16:00,56.7,29.3,23.62,East,99,0.0,0.0,35,0.00,,---,0.00,VWS V14.00,2013-08-12 06:16:00,
2013-08-11 23:21:00,56.5,29.2,23.62,East,99,0.0,0.0,35,0.00,,---,0.00,VWS V14.00,2013-08-12 06:21:00,
2013-08-11 23:26:00,56.3,29.0,23.62,East,99,0.0,0.0,35,0.00,,---,0.00,VWS V14.00,2013-08-12 06:26:00,
2013-08-11 23:31:00,56.1,28.9,23.62,East,99,0.0,0.0,35,0.00,,---,0.00,VWS V14.00,2013-08-12 06:31:00,
2013-08-11 23:36:00,55.9,29.4,23.62,East,99,0.0,0.0,36,0.00,,---,0.00,VWS V14.00,2013-08-12 06:36:00,
2013-08-11 23:41:00,55.9,29.4,23.62,East,99,0.0,0.0,36,0.00,,---,0.00,VWS V14.00,2013-08-12 06:41:00,
2013-08-11 23:46:00,55.8,29.2,23.62,East,99,0.0,0.0,36,0.00,,---,0.00,VWS V14.00,2013-08-12 06:46:00,
2013-08-11 23:51:00,55.9,29.4,23.62,East,99,0.0,0.0,36,0.00,,---,0.00,VWS V14.00,2013-08-12 06:51:00,
2013-08-11 23:56:00,55.9,29.4,23.62,East,99,0.0,0.0,36,0.00,,---,0.00,VWS V14.00,2013-08-12 06:56:00,